Latest Coastal Weather Observations for Gabo Island

IDT60701

Issued at 4:52 am EST Thursday 3 September 2026 (issued every 10 minutes, with the page automatically refreshed every 10 minutes)

About coastal observations | Map of coastal stations | Coastal observations for TAS | Marine services | Other Formats
Station Details ID: 084016 Name: GABO ISLAND LIGHTHOUSE Lat: -37.57 Lon: 149.92 Height: 15.0 m
Data from the previous 72 hours. | See also: Recent months at Gabo Island
Date/Time
EST
Wind Sea
Height
m
Swell Vis
km
Cloud Weather Temp
°C
Press
MSL
hPa
Rain since
9am
mm
Dir  Spd
kts
Gust
kts
Height
m
Period
s
Dir
03/04:30am W 13 16 - - - - - - - 12.8 1007.3 0.0
03/04:00am WSW 14 18 - - - - - - - 13.3 1007.3 0.0
03/03:30am WSW 13 16 - - - - - - - 13.6 1007.2 0.0
03/03:00am WNW 4 6 1 1.0 10 SE 25 Mostly cloudy Fine 13.8 1006.8 0.0
03/02:30am W 6 8 - - - - - - - 14.3 1007.1 0.0
03/02:00am N 8 12 - - - - - - - 14.6 1007.9 0.0
03/01:30am NNE 8 10 - - - - - - - 14.1 1008.4 0.0
03/01:00am NNE 10 12 - - - - - - - 13.9 1008.8 0.0
03/12:30am NNE 12 15 - - - - - - - 13.8 1008.9 0.0
03/12:00am NNE 10 12 - - - - - - - 13.6 1009.1 0.0
 
Date/Time
EST
Wind Sea
Height
m
Swell Vis
km
Cloud Weather Temp
°C
Press
MSL
hPa
Rain since
9am
mm
Dir  Spd
kts
Gust
kts
Height
m
Period
s
Dir
02/11:30pm NNE 7 8 - - - - - - - 13.2 1009.8 0.0
02/11:00pm NNE 8 9 - - - - - - - 13.5 1010.4 0.0
02/10:30pm NNE 7 9 - - - - - - - 13.6 1011.0 0.0
02/10:00pm NNE 5 7 - - - - - - - 13.3 1011.2 0.0
02/09:30pm N 5 6 - - - - - - - 13.2 1011.6 0.0
02/09:00pm N 5 6 1 1.0 7 S 25 Mostly cloudy Fine 12.7 1011.6 0.0
02/08:30pm CALM 0 0 - - - - - - - 13.7 1011.9 0.0
02/08:00pm CALM 0 0 - - - - - - - 14.3 1012.0 0.0
02/07:30pm CALM 0 1 - - - - - - - 14.5 1012.1 0.0
02/07:00pm SSW 3 4 - - - - - - - 14.6 1012.2 0.0
02/06:30pm SSW 6 7 - - - - - - - 14.6 1012.1 0.0
02/06:00pm SSW 7 8 - - - - - - - 14.6 1012.0 0.0
02/05:30pm SSW 9 10 - - - - - - - 14.6 1011.7 0.0
02/05:00pm SSW 10 12 - - - - - - - 14.8 1011.4 0.0
02/04:30pm SSW 10 12 - - - - - - - 15.1 1011.4 0.0
02/04:00pm SSW 11 13 - - - - - - - 15.3 1011.5 0.0
02/03:30pm SSW 14 15 - - - - - - - 15.3 1011.5 0.0
02/03:00pm SSW 15 17 1 1.0 10 SE 20 Partly cloudy Fine 15.4 1011.6 0.0
02/02:30pm SSW 16 19 - - - - - - - 15.8 1011.9 0.0
02/02:00pm SSW 15 18 - - - - - - - 15.6 1011.7 0.0
02/01:30pm SSW 14 17 - - - - - - - 16.0 1011.9 0.0
02/01:00pm SSW 17 19 - - - - - - - 15.9 1012.1 0.0
02/12:30pm SSW 16 19 - - - - - - - 16.2 1012.4 0.0
02/12:00pm SSW 18 22 - - - - - - - 16.2 1012.6 0.0
02/11:30am SSW 17 19 - - - - - - - 16.8 1013.1 0.0
02/11:00am SSW 17 19 - - - - - - - 16.7 1013.4 0.0
02/10:30am SW 9 14 - - - - - - - 17.2 1013.6 0.0
02/10:00am SSW 3 4 - - - - - - - 17.3 1013.6 0.0
02/09:30am SSW 4 5 - - - - - - - 17.0 1013.6 0.0
02/09:00am SSW 6 7 <0.5 0.5 10 SE 25 Partly cloudy Fine 17.3 1013.4 0.0
02/08:30am S 8 9 - - - - - - - 17.1 1013.2 0.0
02/08:00am SW 10 13 - - - - - - - 17.2 1013.0 0.0
02/07:30am NW 5 6 - - - - - - - 17.5 1012.2 0.0
02/07:00am NW 4 6 - - - - - - - 15.4 1011.9 0.0
02/06:30am WNW 5 5 - - - - - - - 15.8 1011.8 0.0
02/06:00am NNE 4 7 - - - - - - - 14.7 1011.7 0.0
02/05:30am NE 4 5 - - - - - - - 16.0 1011.6 0.0
02/05:00am NW 7 8 - - - - - - - 16.6 1011.4 0.0
02/04:30am NW 4 5 - - - - - - - 16.4 1011.2 0.0
02/04:00am NW 5 6 - - - - - - - 17.4 1011.3 0.0
02/03:30am N 7 8 - - - - - - - 16.0 1011.2 0.0
02/03:00am NNE 7 8 1 1.0 10 S 25 Mostly clear Fine 15.7 1011.2 0.0
02/02:30am N 7 8 - - - - - - - 17.2 1011.6 0.0
02/02:00am N 7 11 - - - - - - - 18.1 1011.9 0.0
02/01:30am N 7 8 - - - - - - - 18.2 1011.8 0.0
02/01:00am N 6 7 - - - - - - - 18.0 1012.0 0.0
02/12:30am NNW 6 8 - - - - - - - 18.3 1012.3 0.0
02/12:00am NNW 7 8 - - - - - - - 18.2 1012.4 0.0
 
Date/Time
EST
Wind Sea
Height
m
Swell Vis
km
Cloud Weather Temp
°C
Press
MSL
hPa
Rain since
9am
mm
Dir  Spd
kts
Gust
kts
Height
m
Period
s
Dir
01/11:30pm NW 8 11 - - - - - - - 18.4 1012.9 0.0
01/11:00pm NW 5 7 - - - - - - - 17.7 1013.2 0.0
01/10:30pm NW 7 7 - - - - - - - 18.0 1013.2 0.0
01/10:00pm NW 8 9 - - - - - - - 18.6 1013.4 0.0
01/09:30pm NNW 6 7 - - - - - - - 18.0 1013.5 0.0
01/09:00pm N 6 7 1 1.0 11 S 25 Cloudy Fine 18.4 1013.8 0.0
01/08:30pm N 7 8 - - - - - - - 17.3 1013.6 0.0
01/08:00pm N 8 10 - - - - - - - 17.8 1013.6 0.0
01/07:30pm NNW 7 9 - - - - - - - 18.5 1013.8 0.0
01/07:00pm NW 6 9 - - - - - - - 19.3 1013.6 0.0
01/06:30pm NNW 10 13 - - - - - - - 19.5 1013.3 0.0
01/06:00pm N 9 13 - - - - - - - 19.2 1012.9 0.0
01/05:30pm N 7 9 - - - - - - - 16.9 1013.2 0.0
01/05:00pm NNE 9 12 - - - - - - - 17.5 1013.3 0.0
01/04:30pm E 10 15 - - - - - - - 17.3 1013.4 0.0
01/04:00pm NE 14 16 - - - - - - - 17.2 1013.6 0.0
01/03:30pm NE 13 14 - - - - - - - 17.5 1014.0 0.0
01/03:00pm NE 13 15 <0.5 1.0 10 S 25 Mostly cloudy Fine 17.5 1014.3 0.0
01/02:30pm NE 13 14 - - - - - - - 17.9 1014.5 0.0
01/02:00pm NE 12 14 - - - - - - - 17.4 1015.0 0.0
01/01:30pm E 7 9 - - - - - - - 17.9 1015.9 0.0
01/01:00pm ESE 6 8 - - - - - - - 18.1 1016.6 0.0
01/12:30pm ENE 5 7 - - - - - - - 17.6 1017.4 0.0
01/12:00pm SE 6 7 - - - - - - - 17.2 1018.0 0.0
01/11:30am SSE 5 7 - - - - - - - 16.8 1018.6 0.0
01/11:00am S 4 5 - - - - - - - 16.3 1019.4 0.0
01/10:30am ESE 3 5 - - - - - - - 16.6 1019.8 0.0
01/10:00am S 4 5 - - - - - - - 15.3 1020.3 0.0
01/09:30am SSE 3 4 - - - - - - - 15.1 1020.6 0.0
01/09:00am S 3 4 1 1.0 10 S 25 Clear Fine 14.5 1021.0 0.0
01/08:30am CALM 0 4 - - - - - - - 14.2 1021.1 0.0
01/08:00am CALM 0 0 - - - - - - - 13.3 1021.4 0.0
01/07:30am NNE 1 3 - - - - - - - 12.8 1021.5 0.0
01/07:00am WSW 1 4 - - - - - - - 11.2 1021.6 0.0
01/06:30am WSW 3 4 - - - - - - - 10.2 1021.8 0.0
01/06:00am W 6 7 - - - - - - - 9.8 1021.8 0.0
01/05:30am NNW 5 7 - - - - - - - 10.3 1021.7 0.0
01/05:00am N 5 6 - - - - - - - 10.3 1022.0 0.0
01/04:30am N 5 6 - - - - - - - 11.2 1022.4 0.0
01/04:00am N 9 11 - - - - - - - 11.9 1022.6 0.0
01/03:30am N 9 11 - - - - - - - 12.4 1022.8 0.0
01/03:00am NNE 9 11 1 1.0 10 S 25 Clear Fine 12.6 1023.2 0.0
01/02:30am N 8 9 - - - - - - - 11.7 1023.8 0.0
01/02:00am N 7 9 - - - - - - - 11.6 1024.6 0.0
01/01:30am NNE 3 5 - - - - - - - 11.7 1025.2 0.0
01/01:00am NNW 2 4 - - - - - - - 11.1 1025.7 0.0
01/12:30am NNE 4 5 - - - - - - - 11.6 1026.1 0.0
01/12:00am N 3 4 - - - - - - - 11.5 1026.4 0.0
 
Date/Time
EST
Wind Sea
Height
m
Swell Vis
km
Cloud Weather Temp
°C
Press
MSL
hPa
Rain since
9am
mm
Dir  Spd
kts
Gust
kts
Height
m
Period
s
Dir
31/11:30pm N 4 4 - - - - - - - 10.9 1026.7 0.0
31/11:00pm N 4 4 - - - - - - - 11.6 1027.2 0.0
31/10:30pm NNE 4 5 - - - - - - - 11.4 1027.7 0.0
31/10:00pm N 5 6 - - - - - - - 10.7 1028.1 0.0
31/09:30pm N 5 5 - - - - - - - 11.1 1028.4 0.0
31/09:00pm N 4 6 1 1.0 11 S 25 Partly cloudy Fine 11.7 1028.3 0.0
31/08:30pm CALM 0 0 - - - - - - - 13.0 1028.6 0.0
31/08:00pm SSW 2 4 - - - - - - - 12.9 1028.8 0.0
31/07:30pm SSE 4 5 - - - - - - - 13.4 1029.0 0.0
31/07:00pm SSW 1 3 - - - - - - - 13.0 1029.0 0.0
31/06:30pm SSW 6 7 - - - - - - - 13.3 1028.9 0.0
31/06:00pm SSW 6 8 - - - - - - - 13.3 1028.6 0.0
31/05:30pm SSW 7 8 - - - - - - - 13.5 1028.5 0.0
31/05:00pm SW 9 11 - - - - - - - 13.8 1028.5 0.0
31/04:30pm SW 11 13 - - - - - - - 14.0 1028.4 0.0
31/04:00pm SSW 13 16 - - - - - - - 14.2 1028.4 0.0
31/03:30pm SSW 16 18 - - - - - - - 14.0 1028.3 0.0
31/03:00pm SW 15 17 1 1.0 8 S 20 Mostly clear Fine 14.2 1028.5 0.0
31/02:30pm SW 14 17 - - - - - - - 14.2 1028.7 0.0
31/02:00pm SW 15 17 - - - - - - - 14.3 1028.9 0.0
31/01:30pm SW 15 17 - - - - - - - 14.5 1029.2 0.0
31/01:00pm SW 17 20 - - - - - - - 14.1 1029.6 0.0
31/12:30pm SW 18 21 - - - - - - - 13.7 1029.8 0.0
31/12:00pm SW 19 22 - - - - - - - 13.7 1030.3 0.0
31/11:30am SW 20 22 - - - - - - - 13.3 1030.6 0.0
31/11:00am SW 20 23 - - - - - - - 13.1 1030.8 0.0
31/10:30am SW 15 17 - - - - - - - 13.2 1031.1 0.0
31/10:00am SW 13 16 - - - - - - - 13.3 1030.9 0.0
31/09:30am WSW 15 18 - - - - - - - 12.6 1031.1 0.0
31/09:00am WSW 15 18 1 1.2 8 S 20 Mostly clear Fine 12.0 1031.2 0.0
31/08:30am WSW 14 18 - - - - - - - 11.5 1031.3 0.0
31/08:00am WSW 15 18 - - - - - - - 11.3 1031.0 0.0
31/07:30am WSW 16 21 - - - - - - - 11.1 1030.8 0.0
31/07:00am WSW 14 18 - - - - - - - 10.8 1030.6 0.0
31/06:30am WSW 15 19 - - - - - - - 10.8 1030.4 0.0
31/06:00am WSW 15 20 - - - - - - - 10.8 1030.1 0.0
31/05:30am W 13 15 - - - - - - - 10.5 1029.8 0.0
31/05:00am W 14 18 - - - - - - - 10.5 1029.7 0.0

Other formats

Comma delimited format used in spreadsheet applications
http://www.bom.gov.au/fwo/IDT60701/IDT60701.94933.axf

JavaScript Object Notation format (JSON) in row-major order
http://www.bom.gov.au/fwo/IDT60701/IDT60701.94933.json

Data quality

Most of these data are generated automatically and are frequently updated. Quality checks on data are not normally performed. It is possible for incorrect values to appear. Refer to information at About Latest Weather Observations and please check the disclaimer before using these data.